Time;durP1;ratioP1;P1;durP2;ratioP2;P2;SDS_P1;SDS_P2;PMS_P1;PMS_P2;Temp;Humidity;BMP_temperature;BMP_pressure;BME280_temperature;BME280_humidity;BME280_pressure;Samples;Min_cycle;Max_cycle;Signal;HPM_P1;HPM_P2
2022/12/04 00:02:11;;;;;;;4.07;3.55;;;;;;;4.48;100.00;100448.63;6183061;23;20016;-81
2022/12/04 00:04:37;;;;;;;1.75;1.38;;;;;;;4.44;100.00;100448.63;6183579;23;20111;-82
2022/12/04 00:07:02;;;;;;;4.10;3.03;;;;;;;4.41;100.00;100430.16;6183229;23;20547;-82
2022/12/04 00:09:28;;;;;;;3.65;2.40;;;;;;;4.34;100.00;100432.88;6183530;23;20008;-82
2022/12/04 00:11:53;;;;;;;4.30;1.90;;;;;;;4.40;100.00;100442.31;6183100;23;20436;-81
2022/12/04 00:14:19;;;;;;;4.22;3.90;;;;;;;4.36;100.00;100438.78;6183086;23;20068;-82
2022/12/04 00:16:44;;;;;;;2.67;2.47;;;;;;;4.40;100.00;100450.56;6183357;23;20012;-81
2022/12/04 00:19:10;;;;;;;5.72;3.70;;;;;;;4.38;100.00;100435.63;6182894;23;20565;-83
2022/12/04 00:21:35;;;;;;;2.97;2.58;;;;;;;4.41;100.00;100446.63;6183058;23;20005;-83
2022/12/04 00:24:01;;;;;;;0.98;0.95;;;;;;;4.39;100.00;100445.44;6183571;23;20013;-83
2022/12/04 00:26:27;;;;;;;2.78;1.92;;;;;;;4.30;100.00;100440.31;6180965;23;20035;-83
2022/12/04 00:28:54;;;;;;;4.88;3.28;;;;;;;4.33;100.00;100445.03;6183259;23;20056;-83
2022/12/04 00:31:23;;;;;;;2.33;2.08;;;;;;;4.33;100.00;100439.53;6181288;23;20024;-83
2022/12/04 00:33:49;;;;;;;2.95;2.75;;;;;;;4.37;100.00;100440.31;6181509;23;20036;-82
2022/12/04 00:36:17;;;;;;;3.25;3.03;;;;;;;4.27;100.00;100429.31;6181350;23;20021;-82
2022/12/04 00:38:43;;;;;;;3.42;3.13;;;;;;;4.31;100.00;100430.91;6182982;23;20013;-82
2022/12/04 00:41:13;;;;;;;5.32;2.95;;;;;;;4.23;100.00;100432.03;6181359;23;20390;-81
2022/12/04 00:43:39;;;;;;;4.47;4.05;;;;;;;4.26;100.00;100438.69;6181233;23;20407;-81
2022/12/04 00:46:05;;;;;;;2.88;2.60;;;;;;;4.21;100.00;100434.38;6181145;23;20013;-81
2022/12/04 00:48:31;;;;;;;6.55;4.13;;;;;;;4.22;100.00;100444.19;6181034;23;20013;-81
2022/12/04 00:51:05;;;;;;;3.63;2.95;;;;;;;4.21;100.00;100442.59;6182812;23;20339;-82
2022/12/04 00:53:30;;;;;;;;;;;;;;;4.23;100.00;100438.31;6181518;23;20013;-81
2022/12/04 00:55:56;;;;;;;2.58;1.48;;;;;;;4.16;100.00;100441.03;6181839;23;20335;-81
2022/12/04 00:58:21;;;;;;;0.93;0.93;;;;;;;4.18;100.00;100443.38;6180368;23;20013;-81
2022/12/04 01:00:47;;;;;;;2.28;2.08;;;;;;;4.15;100.00;100444.94;6182532;23;20364;-82
2022/12/04 01:03:12;;;;;;;5.28;3.15;;;;;;;4.12;100.00;100439.44;6182014;23;20053;-82
2022/12/04 01:05:43;;;;;;;3.25;3.05;;;;;;;4.24;100.00;100452.84;6182800;23;20020;-81
2022/12/04 01:08:09;;;;;;;3.80;2.83;;;;;;;4.21;100.00;100453.59;6180395;23;20067;-81
2022/12/04 01:10:39;;;;;;;8.70;4.78;;;;;;;4.16;100.00;100446.53;6182714;23;20072;-81
2022/12/04 01:13:05;;;;;;;5.95;3.20;;;;;;;4.16;100.00;100451.22;6182915;23;20443;-81
2022/12/04 01:15:30;;;;;;;4.13;3.83;;;;;;;4.09;100.00;100445.66;6182880;23;20005;-81
2022/12/04 01:17:56;;;;;;;1.73;1.63;;;;;;;4.12;100.00;100450.41;6182880;23;20100;-81
2022/12/04 01:20:21;;;;;;;10.30;3.60;;;;;;;4.14;100.00;100448.06;6182260;23;20048;-81
2022/12/04 01:22:47;;;;;;;2.75;2.55;;;;;;;4.07;100.00;100435.09;6184343;23;20024;-81
2022/12/04 01:25:12;;;;;;;3.60;3.30;;;;;;;4.06;100.00;100438.22;6186064;23;20020;-81
2022/12/04 01:27:38;;;;;;;6.00;4.00;;;;;;;4.06;100.00;100430.75;6185231;23;20068;-81
2022/12/04 01:30:04;;;;;;;4.25;3.47;;;;;;;4.05;100.00;100429.19;6185947;23;20001;-81
2022/12/04 01:32:29;;;;;;;3.50;2.60;;;;;;;4.08;100.00;100441.38;6186033;23;20048;-82
2022/12/04 01:34:55;;;;;;;3.95;3.63;;;;;;;4.05;100.00;100428.38;6185317;23;20092;-81
2022/12/04 01:37:20;;;;;;;19.45;5.40;;;;;;;4.02;100.00;100418.19;6184622;23;20005;-81
2022/12/04 01:39:46;;;;;;;4.78;4.43;;;;;;;3.97;100.00;100399.31;6185841;23;20064;-81
2022/12/04 01:42:13;;;;;;;4.45;3.97;;;;;;;3.96;100.00;100397.78;6185330;23;20076;-81
2022/12/04 01:44:41;;;;;;;3.30;2.90;;;;;;;3.94;100.00;100408.34;6185894;23;20017;-81
2022/12/04 01:47:09;;;;;;;2.58;2.38;;;;;;;3.93;100.00;100393.03;6184124;23;20428;-81
2022/12/04 01:49:38;;;;;;;3.10;2.88;;;;;;;3.90;100.00;100391.84;6183628;23;20020;-81
2022/12/04 01:52:08;;;;;;;3.03;2.83;;;;;;;3.86;100.00;100391.03;6183922;23;20083;-82
2022/12/04 01:54:36;;;;;;;4.85;3.13;;;;;;;3.89;100.00;100368.31;6183603;23;20020;-81
2022/12/04 01:57:13;;;;;;;4.00;3.30;;;;;;;3.91;100.00;100381.66;6158809;23;20023;-81
2022/12/04 01:59:49;;;;;;;6.65;3.95;;;;;;;3.86;100.00;100382.00;6183942;23;20084;-81
2022/12/04 02:02:20;;;;;;;8.65;4.65;;;;;;;3.84;100.00;100378.88;6149404;23;20077;-82
2022/12/04 02:04:45;;;;;;;3.10;2.42;;;;;;;3.78;100.00;100380.41;6187397;23;20396;-78
2022/12/04 02:07:11;;;;;;;3.00;2.80;;;;;;;3.85;100.00;100380.44;6215128;23;20048;-79
2022/12/04 02:09:38;;;;;;;4.38;3.97;;;;;;;3.82;100.00;100378.47;6189350;23;20071;-78
2022/12/04 02:12:22;;;;;;;4.38;3.97;;;;;;;3.76;100.00;100378.81;6189075;23;20441;-79
2022/12/04 02:15:16;;;;;;;3.80;3.55;;;;;;;3.74;100.00;100375.69;6216297;23;20107;-79
2022/12/04 02:17:55;;;;;;;4.53;3.13;;;;;;;3.65;100.00;100388.16;6188988;23;20024;-78
2022/12/04 02:20:58;;;;;;;2.90;2.70;;;;;;;3.71;100.00;100378.41;6215806;23;20186;-79
2022/12/04 02:23:42;;;;;;;4.68;4.35;;;;;;;3.71;100.00;100392.91;6215853;23;20012;-79
2022/12/04 02:26:26;;;;;;;;;;;;;;;3.68;100.00;100382.69;6216774;23;20465;-79
2022/12/04 02:29:19;;;;;;;2.50;2.00;;;;;;;3.63;100.00;100385.03;6216044;23;19916;-79
2022/12/04 02:31:57;;;;;;;3.25;3.05;;;;;;;3.60;100.00;100381.06;6189835;23;20013;-78
2022/12/04 02:34:47;;;;;;;6.15;5.63;;;;;;;3.53;100.00;100363.78;6214243;23;20016;-79
2022/12/04 02:37:18;;;;;;;2.42;2.33;;;;;;;3.52;100.00;100368.47;6214339;23;20020;-79
2022/12/04 02:39:53;;;;;;;2.13;1.27;;;;;;;3.45;100.00;100362.94;6188050;23;20020;-79
2022/12/04 02:42:43;;;;;;;12.77;6.22;;;;;;;3.50;100.00;100372.78;6187914;23;20013;-78
2022/12/04 02:45:11;;;;;;;4.30;3.55;;;;;;;3.47;100.00;100368.84;6214426;23;20027;-78
2022/12/04 02:47:39;;;;;;;4.07;3.78;;;;;;;3.50;100.00;100368.06;6162218;23;20005;-79
2022/12/04 02:50:08;;;;;;;14.13;3.17;;;;;;;3.52;100.00;100362.22;6187503;23;20013;-79
2022/12/04 02:52:45;;;;;;;4.28;3.20;;;;;;;3.57;100.00;100361.84;6187877;23;20001;-79
2022/12/04 02:55:18;;;;;;;3.13;2.92;;;;;;;3.50;100.00;100370.81;6187743;23;20032;-79
2022/12/04 02:57:48;;;;;;;2.90;2.70;;;;;;;3.42;100.00;100374.69;6187550;23;20016;-81
2022/12/04 03:00:14;;;;;;;4.72;4.35;;;;;;;3.38;100.00;100379.34;6187826;23;20514;-81
2022/12/04 03:02:46;;;;;;;5.68;4.35;;;;;;;3.37;100.00;100390.69;6187359;23;20016;-81
2022/12/04 03:05:15;;;;;;;1.57;1.50;;;;;;;3.39;100.00;100380.94;6162619;23;20016;-81
2022/12/04 03:07:48;;;;;;;3.13;2.92;;;;;;;3.37;100.00;100386.00;6213831;23;20000;-81
2022/12/04 03:10:24;;;;;;;7.28;5.50;;;;;;;3.32;100.00;100386.34;6187785;23;20021;-81
2022/12/04 03:12:54;;;;;;;2.72;2.53;;;;;;;3.37;100.00;100383.25;6187708;23;20432;-80
2022/12/04 03:15:29;;;;;;;4.03;3.78;;;;;;;3.32;100.00;100394.56;6188157;23;20015;-81
2022/12/04 03:18:02;;;;;;;1.85;1.75;;;;;;;3.34;100.00;100399.69;6187260;23;20104;-81
2022/12/04 03:20:31;;;;;;;3.63;3.33;;;;;;;3.32;100.00;100391.06;6187396;23;20070;-81
2022/12/04 03:23:05;;;;;;;2.88;1.65;;;;;;;3.28;100.00;100385.53;6161677;23;20020;-80
2022/12/04 03:25:34;;;;;;;3.90;3.60;;;;;;;3.29;100.00;100387.91;6187416;23;20107;-80
2022/12/04 03:28:03;;;;;;;3.70;3.40;;;;;;;3.32;100.00;100380.09;6187099;23;20032;-81
2022/12/04 03:30:52;;;;;;;4.10;3.70;;;;;;;3.24;100.00;100363.56;6187581;23;20062;-81
2022/12/04 03:33:21;;;;;;;4.90;4.05;;;;;;;3.21;100.00;100369.03;6186291;23;20017;-81
2022/12/04 03:36:20;;;;;;;5.53;3.45;;;;;;;3.23;100.00;100367.50;6214096;23;20020;-79
2022/12/04 03:38:58;;;;;;;6.13;5.15;;;;;;;3.20;100.00;100361.97;6186820;23;20013;-78
2022/12/04 03:41:30;;;;;;;4.68;4.28;;;;;;;3.16;100.00;100363.88;6162723;23;20023;-79
2022/12/04 03:44:01;;;;;;;5.43;4.93;;;;;;;3.21;100.00;100377.25;6186736;23;20009;-79
2022/12/04 03:46:33;;;;;;;6.15;4.10;;;;;;;3.25;100.00;100376.13;6213776;23;20023;-79
2022/12/04 03:49:06;;;;;;;3.72;3.42;;;;;;;3.22;100.00;100376.09;6186899;23;20347;-79
2022/12/04 03:51:54;;;;;;;2.65;2.53;;;;;;;3.29;100.00;100381.63;6187156;23;20039;-79
2022/12/04 03:54:23;;;;;;;3.70;2.10;;;;;;;3.27;100.00;100378.47;6213267;23;20017;-81
2022/12/04 03:56:55;;;;;;;3.22;2.60;;;;;;;3.22;100.00;100368.66;6187676;23;20032;-81
2022/12/04 03:59:40;;;;;;;9.30;5.70;;;;;;;3.18;100.00;100369.78;6161955;23;20051;-81
2022/12/04 04:02:09;;;;;;;1.75;1.65;;;;;;;3.23;100.00;100366.69;6186707;23;20015;-81
2022/12/04 04:04:35;;;;;;;1.08;0.98;;;;;;;3.22;100.00;100376.09;6186810;23;20377;-81
2022/12/04 04:07:08;;;;;;;2.33;2.15;;;;;;;3.21;100.00;100380.78;6187057;23;20091;-81
2022/12/04 04:09:36;;;;;;;6.18;5.60;;;;;;;3.22;100.00;100384.31;6186638;23;20013;-81
2022/12/04 04:12:06;;;;;;;4.43;4.05;;;;;;;3.19;100.00;100383.13;6186934;23;20012;-81
2022/12/04 04:25:44;;;;;;;3.58;2.90;;;;;;;3.03;100.00;100396.28;6190932;23;20012;-81
2022/12/04 04:28:45;;;;;;;4.20;3.83;;;;;;;3.10;100.00;100403.78;6186517;23;20071;-80
2022/12/04 04:31:25;;;;;;;2.60;2.20;;;;;;;3.10;100.00;100390.06;6091943;23;20020;-80
2022/12/04 04:34:16;;;;;;;9.23;4.03;;;;;;;3.09;100.00;100391.25;6199630;23;20020;-81
2022/12/04 04:36:59;;;;;;;6.10;5.47;;;;;;;3.05;100.00;100383.00;6197183;23;20099;-81
2022/12/04 04:39:31;;;;;;;2.35;2.15;;;;;;;3.13;100.00;100384.63;6186350;23;20112;-81
2022/12/04 04:42:19;;;;;;;5.63;4.45;;;;;;;3.11;100.00;100380.69;6186951;23;20533;-81
2022/12/04 04:45:04;;;;;;;2.47;2.28;;;;;;;3.07;100.00;100375.19;6186915;23;20032;-81
2022/12/04 04:47:38;;;;;;;4.82;4.32;;;;;;;3.06;100.00;100370.06;6186347;23;20316;-81
2022/12/04 04:50:04;;;;;;;;;;;;;;;3.02;100.00;100377.47;6186790;23;20047;-81
2022/12/04 04:52:30;;;;;;;3.00;2.47;;;;;;;3.05;100.00;100377.50;6186452;23;20350;-81
2022/12/04 04:54:55;;;;;;;6.07;3.88;;;;;;;3.02;100.00;100388.44;6212886;23;20012;-81
2022/12/04 04:57:29;;;;;;;10.50;4.25;;;;;;;3.06;100.00;100381.03;6185467;23;20338;-81
2022/12/04 04:59:55;;;;;;;7.63;3.40;;;;;;;3.04;100.00;100377.88;6186530;23;20130;-81
2022/12/04 05:02:20;;;;;;;3.67;2.97;;;;;;;3.09;100.00;100372.06;6212034;23;20445;-81
2022/12/04 05:04:46;;;;;;;5.45;3.55;;;;;;;3.04;100.00;100375.13;6186429;23;20016;-81
2022/12/04 05:07:11;;;;;;;2.60;2.40;;;;;;;3.00;100.00;100368.81;6186665;23;20048;-81
2022/12/04 05:09:37;;;;;;;3.92;2.85;;;;;;;2.95;100.00;100366.47;6213057;23;20013;-81
2022/12/04 05:12:02;;;;;;;1.90;1.80;;;;;;;2.97;100.00;100358.63;6212512;23;20059;-81
2022/12/04 05:14:28;;;;;;;2.83;2.63;;;;;;;3.01;100.00;100359.44;6186467;23;20096;-80
2022/12/04 05:16:54;;;;;;;2.63;0.85;;;;;;;2.98;100.00;100365.69;6186591;23;20028;-80
2022/12/04 05:22:04;;;;;;;2.60;2.50;;;;;;;2.96;100.00;100370.75;6212415;23;20011;-80
2022/12/04 05:24:29;;;;;;;4.43;1.35;;;;;;;2.87;100.00;100362.06;6212485;23;20012;-81
2022/12/04 05:26:55;;;;;;;2.15;1.92;;;;;;;2.93;100.00;100366.03;6212703;23;20036;-81
2022/12/04 05:29:20;;;;;;;3.80;2.80;;;;;;;3.00;100.00;100371.56;6185544;23;20017;-78
2022/12/04 05:31:45;;;;;;;2.17;1.92;;;;;;;2.90;100.00;100369.53;6213393;23;20012;-81
2022/12/04 05:34:11;;;;;;;5.25;4.80;;;;;;;2.89;100.00;100370.69;6186102;23;20023;-80
2022/12/04 05:36:36;;;;;;;3.28;2.97;;;;;;;2.83;100.00;100372.22;6185907;23;20004;-81
2022/12/04 05:39:02;;;;;;;1.88;1.77;;;;;;;2.78;100.00;100378.81;6185950;23;20024;-81
2022/12/04 05:41:27;;;;;;;2.28;2.15;;;;;;;2.73;100.00;100382.69;6212379;23;20378;-81
2022/12/04 05:43:53;;;;;;;4.07;2.88;;;;;;;2.68;100.00;100374.78;6212272;23;20013;-81
2022/12/04 05:46:18;;;;;;;1.15;1.13;;;;;;;2.68;100.00;100399.44;6212576;23;20020;-80
2022/12/04 05:48:44;;;;;;;2.50;2.30;;;;;;;2.76;100.00;100401.09;6212584;23;20395;-80
2022/12/04 05:51:10;;;;;;;2.90;2.67;;;;;;;2.75;100.00;100401.50;6212524;23;20016;-81
2022/12/04 05:53:36;;;;;;;3.35;3.08;;;;;;;2.73;100.00;100388.16;6212612;23;20330;-81
2022/12/04 05:56:03;;;;;;;1.83;1.70;;;;;;;2.71;100.00;100382.25;6212648;23;20094;-81
2022/12/04 05:58:28;;;;;;;3.47;1.25;;;;;;;2.76;100.00;100381.91;6160735;23;20009;-81
2022/12/04 06:00:54;;;;;;;3.38;2.83;;;;;;;2.75;100.00;100372.13;6186490;23;20012;-81
2022/12/04 06:03:20;;;;;;;4.82;4.32;;;;;;;2.73;100.00;100358.03;6179562;23;20497;-81
2022/12/04 06:05:45;;;;;;;1.52;1.42;;;;;;;2.69;100.00;100365.41;6182481;23;20013;-81
2022/12/04 06:08:11;;;;;;;4.15;2.03;;;;;;;2.74;100.00;100373.31;6181896;23;20087;-78
2022/12/04 06:10:36;;;;;;;2.50;2.40;;;;;;;2.72;100.00;100386.56;6181117;23;20402;-78
2022/12/04 06:13:04;;;;;;;4.90;2.80;;;;;;;2.69;100.00;100378.31;6182952;23;20447;-78
2022/12/04 06:15:29;;;;;;;3.85;3.30;;;;;;;2.72;100.00;100369.34;6182858;23;20008;-78
2022/12/04 06:17:55;;;;;;;2.95;2.70;;;;;;;2.78;100.00;100367.84;6181055;23;20461;-78
2022/12/04 06:20:20;;;;;;;4.18;3.25;;;;;;;2.81;100.00;100354.19;6182724;23;20005;-78
2022/12/04 06:22:46;;;;;;;3.85;2.70;;;;;;;2.81;100.00;100362.41;6182221;23;20064;-78
2022/12/04 06:25:11;;;;;;;2.67;2.25;;;;;;;2.82;100.00;100357.72;6183639;23;20005;-78
2022/12/04 06:27:37;;;;;;;1.90;1.80;;;;;;;2.78;100.00;100357.69;6183787;23;20070;-78
2022/12/04 06:30:02;;;;;;;6.78;5.03;;;;;;;2.81;100.00;100367.88;6184358;23;20013;-78
2022/12/04 06:32:28;;;;;;;2.95;2.50;;;;;;;2.80;100.00;100355.34;6184254;23;20005;-78
2022/12/04 06:34:54;;;;;;;2.03;1.75;;;;;;;2.80;100.00;100366.31;6157656;23;20312;-78
2022/12/04 06:37:21;;;;;;;1.92;1.83;;;;;;;2.82;100.00;100368.69;6157689;23;20047;-78
2022/12/04 06:39:47;;;;;;;3.50;3.20;;;;;;;2.85;100.00;100372.59;6157660;23;20009;-77
2022/12/04 06:42:13;;;;;;;1.73;1.63;;;;;;;2.80;100.00;100369.03;6183432;23;20012;-78
2022/12/04 06:44:38;;;;;;;4.93;3.58;;;;;;;2.74;100.00;100365.09;6182374;23;20138;-78
2022/12/04 06:47:04;;;;;;;3.15;1.58;;;;;;;2.73;100.00;100349.03;6184181;23;20032;-78
2022/12/04 06:49:30;;;;;;;8.20;3.15;;;;;;;2.69;100.00;100365.41;6182629;23;20001;-78
2022/12/04 06:51:55;;;;;;;1.63;1.52;;;;;;;2.64;100.00;100368.50;6182479;23;20016;-78
2022/12/04 06:54:21;;;;;;;2.08;1.98;;;;;;;2.63;100.00;100350.47;6157214;23;20443;-77
2022/12/04 06:56:47;;;;;;;2.30;2.15;;;;;;;2.68;100.00;100354.81;6183097;23;20443;-78
2022/12/04 06:59:13;;;;;;;3.10;2.78;;;;;;;2.64;100.00;100367.69;6183293;23;20032;-78
2022/12/04 07:01:38;;;;;;;3.30;1.88;;;;;;;2.63;100.00;100366.91;6183166;23;20013;-78
2022/12/04 07:04:04;;;;;;;2.53;1.42;;;;;;;2.73;100.00;100371.72;6199737;23;20013;-78
2022/12/04 07:06:37;;;;;;;1.92;1.83;;;;;;;2.69;100.00;100373.63;6213399;23;20016;-77
2022/12/04 07:09:08;;;;;;;;;;;;;;;2.68;100.00;100388.50;6211724;23;20403;-77
2022/12/04 07:11:34;;;;;;;6.40;1.77;;;;;;;2.67;100.00;100384.16;6212565;23;19973;-77
2022/12/04 07:14:00;;;;;;;1.20;1.10;;;;;;;2.68;100.00;100384.97;6185852;23;20427;-77
2022/12/04 07:16:26;;;;;;;2.13;2.03;;;;;;;2.66;100.00;100381.81;6186936;23;20012;-77
2022/12/04 07:18:52;;;;;;;3.85;3.35;;;;;;;2.60;100.00;100380.56;6212896;23;20012;-77
2022/12/04 07:21:20;;;;;;;1.58;1.42;;;;;;;2.60;100.00;100389.56;6212619;23;20024;-77
2022/12/04 07:23:50;;;;;;;2.10;2.00;;;;;;;2.63;100.00;100397.03;6186382;23;20016;-81
2022/12/04 07:26:16;;;;;;;3.92;1.67;;;;;;;2.61;100.00;100406.78;6212355;23;20017;-78
2022/12/04 07:28:44;;;;;;;2.72;2.53;;;;;;;2.65;100.00;100407.63;6185988;23;20479;-77
2022/12/04 07:31:11;;;;;;;3.92;3.58;;;;;;;2.71;100.00;100417.09;6211995;23;20013;-77
2022/12/04 07:33:37;;;;;;;2.80;2.67;;;;;;;2.71;100.00;100406.16;6160543;23;20004;-78
2022/12/04 07:36:05;;;;;;;3.75;3.42;;;;;;;2.71;100.00;100406.91;6211366;23;20513;-78
2022/12/04 07:38:31;;;;;;;1.60;1.48;;;;;;;2.68;100.00;100407.66;6185799;23;20071;-77
2022/12/04 07:40:58;;;;;;;1.15;1.13;;;;;;;2.67;100.00;100406.06;6185529;23;20076;-78
2022/12/04 07:43:24;;;;;;;0.80;0.80;;;;;;;2.66;100.00;100390.81;6212022;23;20514;-81
2022/12/04 07:45:50;;;;;;;3.25;2.95;;;;;;;2.72;100.00;100399.47;6212484;23;20127;-81
2022/12/04 07:48:16;;;;;;;2.55;2.20;;;;;;;2.68;100.00;100402.19;6185929;23;20636;-81
2022/12/04 07:50:41;;;;;;;2.75;1.58;;;;;;;2.71;100.00;100406.91;6159673;23;20005;-81
2022/12/04 07:53:07;;;;;;;2.63;2.38;;;;;;;2.78;100.00;100401.53;6212288;23;20540;-81
2022/12/04 12:33:00;;;;;;;1.08;1.05;;;;;;;3.07;100.00;100320.38;6154061;23;20084;-82
2022/12/04 12:35:45;;;;;;;0.28;0.28;;;;;;;3.05;100.00;100327.38;6127141;23;20331;-82
2022/12/04 12:38:16;;;;;;;2.00;1.17;;;;;;;3.04;100.00;100323.84;6152784;23;20017;-82
2022/12/04 12:40:44;;;;;;;4.88;2.42;;;;;;;3.02;100.00;100319.94;6150908;23;20017;-82
2022/12/04 12:43:28;;;;;;;1.77;1.63;;;;;;;3.02;100.00;100317.97;6152169;23;20009;-82
2022/12/04 12:46:07;;;;;;;0.73;0.73;;;;;;;3.02;100.00;100317.19;6151697;23;20260;-82
2022/12/04 12:48:51;;;;;;;1.05;0.75;;;;;;;3.07;100.00;100327.81;6153260;23;20013;-82
2022/12/04 12:51:28;;;;;;;;;;;;;;;3.05;100.00;100306.25;6127685;23;20458;-82
2022/12/04 12:53:57;;;;;;;0.38;0.38;;;;;;;3.04;100.00;100321.13;6153712;23;19908;-82
2022/12/04 12:56:35;;;;;;;1.35;1.25;;;;;;;3.03;100.00;100313.28;6152732;23;20085;-82
2022/12/04 12:59:03;;;;;;;0.82;0.82;;;;;;;3.04;100.00;100309.34;6151076;23;20024;-82
2022/12/04 13:01:45;;;;;;;0.77;0.77;;;;;;;3.10;100.00;100313.34;6151575;23;20361;-82
2022/12/04 13:04:31;;;;;;;0.82;0.70;;;;;;;3.08;100.00;100315.66;6153486;23;20445;-82
2022/12/04 13:07:16;;;;;;;2.60;2.15;;;;;;;3.07;100.00;100303.13;6153625;23;20017;-82
2022/12/04 13:09:50;;;;;;;1.45;1.08;;;;;;;3.07;100.00;100314.09;6092288;23;20705;-82
2022/12/04 13:12:15;;;;;;;;;;;;;;;3.10;100.00;100327.84;6153707;23;20022;-82
2022/12/04 13:14:41;;;;;;;2.90;1.77;;;;;;;3.11;100.00;100321.19;6151515;23;20373;-82
2022/12/04 13:17:34;;;;;;;0.22;0.22;;;;;;;3.19;100.00;100333.00;6153169;23;20006;-82
2022/12/04 13:20:02;;;;;;;0.68;0.68;;;;;;;3.20;100.00;100326.31;6149123;23;20026;-82
2022/12/04 13:22:56;;;;;;;2.53;1.77;;;;;;;3.23;100.00;100340.09;6151808;23;20001;-82
2022/12/04 13:25:34;;;;;;;1.92;1.83;;;;;;;3.22;100.00;100321.25;6153276;23;20081;-82
2022/12/04 13:28:24;;;;;;;2.53;1.75;;;;;;;3.21;100.00;100330.66;6153001;23;20044;-82
2022/12/04 13:31:00;;;;;;;2.83;1.23;;;;;;;3.24;100.00;100327.13;6146792;23;20029;-82
2022/12/04 13:33:45;;;;;;;1.30;0.90;;;;;;;3.25;100.00;100325.97;6123462;23;20021;-82
2022/12/04 13:36:14;;;;;;;4.30;2.55;;;;;;;3.24;100.00;100330.66;6123638;23;20021;-82
2022/12/04 13:38:54;;;;;;;1.25;0.85;;;;;;;3.26;100.00;100327.56;6124868;23;20013;-82
2022/12/04 13:41:20;;;;;;;3.58;3.20;;;;;;;3.25;100.00;100328.72;6124318;23;20017;-82
2022/12/04 13:43:47;;;;;;;3.10;2.38;;;;;;;3.26;100.00;100317.38;6097297;23;20084;-82
2022/12/04 13:46:34;;;;;;;1.75;1.65;;;;;;;3.26;100.00;100322.06;6123980;23;20417;-82
2022/12/04 13:49:14;;;;;;;0.52;0.47;;;;;;;3.26;100.00;100311.09;6098237;23;20017;-82
2022/12/04 13:51:41;;;;;;;1.90;1.67;;;;;;;3.28;100.00;100319.72;6123654;23;20029;-82
2022/12/04 13:54:09;;;;;;;0.20;0.20;;;;;;;3.29;100.00;100321.31;6124038;23;20454;-82
2022/12/04 13:56:35;;;;;;;0.40;0.40;;;;;;;3.32;100.00;100319.78;6123388;23;20141;-82
2022/12/04 13:59:26;;;;;;;1.02;1.02;;;;;;;3.29;100.00;100315.81;6097446;23;20480;-82
2022/12/04 14:02:30;;;;;;;0.98;0.95;;;;;;;3.34;100.00;100310.00;6084912;23;20406;-82
2022/12/04 14:05:05;;;;;;;0.60;0.60;;;;;;;3.36;100.00;100326.06;6088638;23;20029;-82
2022/12/04 14:07:42;;;;;;;11.93;1.33;;;;;;;3.33;100.00;100324.84;6123514;23;20362;-82
2022/12/04 14:10:14;;;;;;;1.83;1.65;;;;;;;3.34;100.00;100325.66;6097109;23;20430;-82
2022/12/04 14:12:41;;;;;;;1.10;0.82;;;;;;;3.35;100.00;100325.28;6097898;23;20037;-82
2022/12/04 14:15:29;;;;;;;0.85;0.85;;;;;;;3.31;100.00;100320.94;6097808;23;20030;-82
2022/12/04 14:18:00;;;;;;;0.45;0.45;;;;;;;3.30;100.00;100325.63;6073396;23;20052;-81
2022/12/04 14:20:28;;;;;;;0.35;0.35;;;;;;;3.29;100.00;100316.63;6123229;23;20022;-82
2022/12/04 14:22:54;;;;;;;0.90;0.85;;;;;;;3.31;100.00;100323.69;6123187;23;20081;-82
2022/12/04 14:25:36;;;;;;;1.25;1.15;;;;;;;3.33;100.00;100326.81;6097694;23;20037;-82
2022/12/04 14:28:25;;;;;;;0.77;0.77;;;;;;;3.31;100.00;100329.16;6073438;23;20359;-82
2022/12/04 14:31:18;;;;;;;1.90;1.15;;;;;;;3.24;100.00;100319.69;6124773;23;20022;-82
2022/12/04 14:33:57;;;;;;;1.20;1.10;;;;;;;3.26;100.00;100333.03;6125203;23;20450;-82
2022/12/04 14:36:30;;;;;;;0.40;0.40;;;;;;;3.30;100.00;100339.34;6099417;23;20320;-82
2022/12/04 14:39:27;;;;;;;1.08;0.88;;;;;;;3.31;100.00;100329.16;6125236;23;20014;-82
2022/12/04 14:42:24;;;;;;;1.25;1.15;;;;;;;3.30;100.00;100325.63;6125250;23;20370;-82
2022/12/04 14:44:55;;;;;;;0.75;0.75;;;;;;;3.27;100.00;100323.66;6123520;23;20084;-82
2022/12/04 14:47:47;;;;;;;0.57;0.57;;;;;;;3.29;100.00;100326.78;6099431;23;20037;-82
2022/12/04 14:50:24;;;;;;;0.85;0.52;;;;;;;3.33;100.00;100321.31;6124886;23;20021;-82
2022/12/04 14:53:15;;;;;;;1.73;1.63;;;;;;;3.32;100.00;100323.28;6099210;23;20010;-82
2022/12/04 14:56:05;;;;;;;2.35;0.80;;;;;;;3.32;100.00;100322.50;6098747;23;20054;-81
2022/12/04 14:58:33;;;;;;;1.77;1.58;;;;;;;3.25;100.00;100315.78;6098446;23;20017;-82
2022/12/04 15:01:19;;;;;;;0.82;0.82;;;;;;;3.34;100.00;100326.44;6124682;23;20084;-82
2022/12/04 15:03:46;;;;;;;0.90;0.90;;;;;;;3.32;100.00;100326.03;6075110;23;20274;-82
2022/12/04 15:06:31;;;;;;;0.80;0.80;;;;;;;3.32;100.00;100322.50;6098562;23;20005;-82
2022/12/04 15:14:50;;;;;;;0.63;0.63;;;;;;;3.27;100.00;100323.66;6102792;23;20021;-81
2022/12/04 15:17:17;;;;;;;0.45;0.45;;;;;;;3.31;100.00;100329.94;6125059;23;20454;-81
2022/12/04 15:19:43;;;;;;;3.83;1.17;;;;;;;3.31;100.00;100324.47;6123504;23;20021;-82
2022/12/04 15:22:21;;;;;;;3.45;3.15;;;;;;;3.37;100.00;100320.19;6124375;23;20002;-81
2022/12/04 15:24:47;;;;;;;0.85;0.85;;;;;;;3.39;100.00;100330.78;6097695;23;20017;-81
2022/12/04 15:27:13;;;;;;;0.35;0.35;;;;;;;3.37;100.00;100330.38;6123836;23;20036;-81
2022/12/04 15:29:47;;;;;;;3.00;2.70;;;;;;;3.40;100.00;100327.63;6124388;23;20010;-82
2022/12/04 15:32:14;;;;;;;0.20;0.20;;;;;;;3.37;100.00;100331.16;6124712;23;20014;-81
2022/12/04 15:35:24;;;;;;;0.25;0.25;;;;;;;3.43;100.00;100331.59;6123017;23;20010;-81
2022/12/04 15:37:49;;;;;;;2.30;1.88;;;;;;;3.44;100.00;100327.69;5983183;23;20020;-82
2022/12/04 15:40:21;;;;;;;3.70;1.95;;;;;;;3.47;100.00;100330.44;6057162;23;20077;-81
2022/12/04 15:42:48;;;;;;;0.40;0.40;;;;;;;3.50;100.00;100332.44;6098666;23;20391;-81
2022/12/04 15:45:13;;;;;;;1.05;0.98;;;;;;;3.53;100.00;100326.16;6098412;23;20658;-81
2022/12/04 15:47:42;;;;;;;1.38;0.57;;;;;;;3.56;100.00;100341.84;6124196;23;20025;-81
2022/12/04 15:50:21;;;;;;;1.75;1.40;;;;;;;3.56;100.00;100328.13;6123856;23;20056;-81
2022/12/04 15:53:18;;;;;;;0.98;0.98;;;;;;;3.55;100.00;100321.09;6098387;23;20010;-81
2022/12/04 15:55:52;;;;;;;1.05;1.02;;;;;;;3.60;100.00;100326.19;6076091;23;20018;-81
2022/12/04 15:58:26;;;;;;;0.05;0.05;;;;;;;3.62;100.00;100323.88;6074317;23;20135;-81
2022/12/04 16:00:58;;;;;;;0.80;0.80;;;;;;;3.60;100.00;100319.97;6098410;23;20462;-81
2022/12/04 16:03:29;;;;;;;1.48;1.38;;;;;;;3.59;100.00;100323.88;6098423;23;20018;-81
2022/12/04 16:06:14;;;;;;;2.22;2.03;;;;;;;3.61;100.00;100327.78;6123323;23;20017;-81
2022/12/04 16:08:41;;;;;;;1.95;1.85;;;;;;;3.53;100.00;100311.66;6124167;23;20089;-81
2022/12/04 16:11:32;;;;;;;0.43;0.43;;;;;;;3.62;100.00;100317.59;6124345;23;20006;-81
2022/12/04 16:14:24;;;;;;;1.15;1.15;;;;;;;3.62;100.00;100312.13;6098366;23;20037;-81
2022/12/04 16:16:51;;;;;;;2.15;1.25;;;;;;;3.62;100.00;100307.41;6092561;23;20014;-81
2022/12/04 16:19:28;;;;;;;1.92;1.83;;;;;;;3.66;100.00;100319.19;6098076;23;20005;-81
2022/12/04 16:21:54;;;;;;;0.65;0.50;;;;;;;3.69;100.00;100318.44;6124075;23;20446;-81
2022/12/04 16:24:20;;;;;;;0.88;0.88;;;;;;;3.70;100.00;100327.44;6124821;23;20057;-81
2022/12/04 16:26:48;;;;;;;2.10;1.90;;;;;;;3.69;100.00;100321.16;6123636;23;20470;-81
2022/12/04 16:29:14;;;;;;;1.05;1.05;;;;;;;3.72;100.00;100323.13;6124251;23;20093;-82
2022/12/04 16:31:39;;;;;;;0.65;0.65;;;;;;;3.72;100.00;100325.88;6124555;23;20049;-81
2022/12/04 16:34:05;;;;;;;2.67;1.25;;;;;;;3.75;100.00;100332.56;6151895;23;20016;-81
2022/12/04 16:36:31;;;;;;;2.65;1.02;;;;;;;3.85;100.00;100334.56;6152064;23;20068;-82
2022/12/04 16:38:56;;;;;;;1.77;0.90;;;;;;;3.87;100.00;100323.22;6151823;23;20018;-82
2022/12/04 16:41:22;;;;;;;2.05;1.95;;;;;;;3.86;100.00;100321.66;6152112;23;20013;-82
2022/12/04 16:43:54;;;;;;;2.97;2.80;;;;;;;3.90;100.00;100325.19;6149376;23;20350;-83
2022/12/04 16:46:23;;;;;;;1.67;0.88;;;;;;;3.94;100.00;100328.75;6151229;23;20013;-82